Flight Track Log - Related Links

Times and Time Zones

All times are in EST time to prevent confusion due to time zone crossing. See the SCX8700 flight status page for this flight to view local times or setup timezone preferences in your user account.

Time Position Orientation Groundspeed Altitude Reporting Facility
EST Latitude Longitude Course Direction KTS MPH feet Rate Location/Type
Sat 07:17:12 PM 46.8967 -96.8156 152° Southeast 150 173 2,500  Level Minneapolis Center
Sat 07:18:14 PM 46.8467 -96.7769 152° Southeast 219 252 4,800 2,585 Climbing Minneapolis Center
Sat 07:19:15 PM 46.7942 -96.6944 133° Southeast 281 323 7,800 2,927 Climbing Minneapolis Center
Sat 07:20:17 PM 46.7297 -96.6011 135° Southeast 308 354 10,800 2,976 Climbing Minneapolis Center
Sat 07:21:18 PM 46.6553 -96.4919 135° Southeast 359 413 13,900 2,829 Climbing Minneapolis Center
Sat 07:22:20 PM 46.5753 -96.3753 135° Southeast 392 451 16,600 2,585 Climbing Minneapolis Center
Sat 07:23:21 PM 46.4964 -96.2611 135° Southeast 405 466 19,200 2,488 Climbing Minneapolis Center
Sat 07:24:23 PM 46.4119 -96.1400 135° Southeast 422 486 21,700 2,488 Climbing Minneapolis Center
Sat 07:25:24 PM 46.3211 -96.0181 137° Southeast 441 507 24,300 2,390 Climbing Minneapolis Center
Sat 07:26:26 PM 46.2161 -95.9139 146° Southeast 451 519 26,600 2,098 Climbing Minneapolis Center
Sat 07:27:27 PM 46.0978 -95.7922 144° Southeast 470 541 28,600 1,869 Climbing Minneapolis Center
Sat 07:28:28 PM 45.9881 -95.6753 143° Southeast 483 556 30,400 1,707 Climbing Minneapolis Center
Sat 07:29:30 PM 45.8744 -95.5619 145° Southeast 490 564 32,100 1,707 Climbing Minneapolis Center
Sat 07:30:31 PM 45.7608 -95.4478 145° Southeast 495 570 33,900 1,854 Climbing Minneapolis Center
Sat 07:31:33 PM 45.6469 -95.3356 145° Southeast 495 570 35,900 1,268 Climbing Minneapolis Center
Sat 07:32:34 PM 45.5339 -95.2250 146° Southeast 494 568 36,500 537 Climbing Minneapolis Center
Sat 07:33:36 PM 45.4172 -95.1125 146° Southeast 502 578 37,000 244 Climbing Minneapolis Center
Sat 07:34:37 PM 45.3014 -94.9994 146° Southeast 506 582 37,000  Level Minneapolis Center
Sat 07:35:38 PM 45.1642 -94.8669 146° Southeast 500 575 37,000  Level Minneapolis Center
Sat 07:36:40 PM 45.0503 -94.7575 146° Southeast 500 575 37,000  Level Minneapolis Center
Sat 07:37:41 PM 44.9383 -94.6503 146° Southeast 492 566 37,000  Level Minneapolis Center
Sat 07:38:42 PM 44.8378 -94.5539 146° Southeast 488 562 37,000  Level Minneapolis Center
Sat 07:39:43 PM 44.7264 -94.4486 146° Southeast 487 560 37,000  Level Minneapolis Center
Sat 07:40:45 PM 44.5944 -94.3236 146° Southeast 484 557 37,000 -293 Level Minneapolis Center
Sat 07:41:46 PM 44.4844 -94.2203 146° Southeast 482 555 36,400 -787 Descending Minneapolis Center
Sat 07:42:47 PM 44.3747 -94.1161 146° Southeast 480 552 35,400 -984 Descending Minneapolis Center
Sat 07:43:48 PM 44.2633 -94.0150 147° Southeast 482 555 34,400 -927 Descending Minneapolis Center
Sat 07:44:50 PM 44.1567 -93.9167 147° Southeast 469 540 33,500 -683 Descending Minneapolis Center
Sat 07:45:51 PM 44.0494 -93.8178 146° Southeast 467 537 33,000 -246 Descending Minneapolis Center
Sat 07:46:52 PM 43.9417 -93.7186 146° Southeast 467 537 33,000  Level Minneapolis Center
Sat 07:47:53 PM 43.8339 -93.6214 147° Southeast 467 537 33,000  Level Minneapolis Center
Sat 07:48:54 PM 43.7050 -93.5039 147° Southeast 467 537 33,000  Level Minneapolis Center
Sat 07:49:56 PM 43.5972 -93.4072 147° Southeast 466 536 33,000  Level Minneapolis Center
Sat 07:50:57 PM 43.4881 -93.3086 147° Southeast 466 536 33,000  Level Minneapolis Center
Sat 07:51:58 PM 43.3803 -93.2114 147° Southeast 465 535 33,000  Level Minneapolis Center
Sat 07:52:59 PM 43.2728 -93.1164 147° Southeast 465 535 33,000  Level Minneapolis Center
Sat 07:54:00 PM 43.1661 -93.0192 146° Southeast 465 535 33,000  Level Minneapolis Center
Sat 07:55:01 PM 43.0586 -92.9250 147° Southeast 465 535 33,000  Level Minneapolis Center
Sat 07:56:02 PM 42.9514 -92.8303 147° Southeast 465 535 33,000  Level Minneapolis Center
Sat 07:56:58 PM 42.8433 -92.7358 147° Southeast 463 533 33,000  Level Chicago Center
Sat 07:57:59 PM 42.7361 -92.6431 148° Southeast 461 531 33,000 48 Level Chicago Center
Sat 07:59:03 PM 42.6075 -92.5314 147° Southeast 461 531 33,100 960 Climbing Chicago Center
Sat 08:00:04 PM 42.5008 -92.4356 146° Southeast 464 534 35,000 927 Climbing Chicago Center
Sat 08:01:06 PM 42.3950 -92.3458 148° Southeast 457 526 35,000  Level Chicago Center
Sat 08:02:07 PM 42.2903 -92.2558 148° Southeast 453 521 35,000  Level Chicago Center
Sat 08:03:09 PM 42.1853 -92.1644 147° Southeast 454 522 35,000  Level Chicago Center
Sat 08:04:10 PM 42.0808 -92.0753 148° Southeast 451 519 35,000  Level Chicago Center
Sat 08:05:11 PM 41.9525 -91.9686 148° Southeast 455 524 35,000  Level Chicago Center
Sat 08:06:13 PM 41.8458 -91.8783 148° Southeast 456 525 35,000  Level Chicago Center
Sat 08:07:14 PM 41.7403 -91.7878 147° Southeast 456 525 35,000  Level Chicago Center
Sat 08:08:15 PM 41.6336 -91.6975 148° Southeast 458 527 35,000  Level Chicago Center
Sat 08:09:17 PM 41.5328 -91.5894 141° Southeast 466 536 35,000  Level Chicago Center
Sat 08:10:18 PM 41.4314 -91.4836 142° Southeast 469 540 35,000  Level Chicago Center
Sat 08:11:19 PM 41.3294 -91.3794 142° Southeast 467 537 35,000  Level Chicago Center
Sat 08:12:21 PM 41.2081 -91.2514 142° Southeast 469 540 35,000  Level Chicago Center
Sat 08:13:22 PM 41.1036 -91.1442 142° Southeast 473 544 35,000  Level Chicago Center
Sat 08:14:23 PM 40.9997 -91.0381 142° Southeast 473 544 35,000  Level Chicago Center
Sat 08:15:25 PM 40.8964 -90.9325 142° Southeast 471 542 35,000  Level Chicago Center
Sat 08:16:26 PM 40.7939 -90.8269 142° Southeast 469 540 35,000  Level Chicago Center
Sat 08:17:28 PM 40.6908 -90.7233 143° Southeast 469 540 35,000  Level Chicago Center
Sat 08:18:29 PM 40.5883 -90.6194 142° Southeast 468 539 35,000  Level Chicago Center
Sat 08:19:30 PM 40.4644 -90.4947 143° Southeast 469 540 35,000  Level Chicago Center
Sat 08:20:32 PM 40.3625 -90.3917 142° Southeast 467 537 35,000  Level Chicago Center
Sat 08:21:33 PM 40.2592 -90.2889 143° Southeast 469 540 35,000  Level Chicago Center
Sat 08:22:35 PM 40.1561 -90.1861 143° Southeast 470 541 35,000  Level Chicago Center
Sat 08:23:36 PM 40.0525 -90.0842 143° Southeast 469 540 35,000  Level Chicago Center
Sat 08:24:29 PM 39.9703 -90.0019 143° Southeast 469 540 35,000  Level Kansas City Center
Sat 08:25:31 PM 39.8464 -89.8803 143° Southeast 469 540 35,000  Level Kansas City Center
Sat 08:26:32 PM 39.7444 -89.7783 142° Southeast 467 537 35,000  Level Kansas City Center
Sat 08:27:33 PM 39.6500 -89.6864 143° Southeast 465 535 35,000  Level Kansas City Center
Sat 08:28:35 PM 39.5467 -89.5883 144° Southeast 464 534 35,000  Level Kansas City Center
Sat 08:29:36 PM 39.4439 -89.4886 143° Southeast 464 534 35,000  Level Kansas City Center
Sat 08:30:37 PM 39.3214 -89.3689 143° Southeast 461 531 35,000  Level Kansas City Center
Sat 08:31:39 PM 39.2178 -89.2700 144° Southeast 461 531 35,000  Level Kansas City Center
Sat 08:32:40 PM 39.1131 -89.1706 144° Southeast 462 532 35,000  Level Kansas City Center
Sat 08:33:41 PM 39.0092 -89.0706 143° Southeast 462 532 35,000  Level Kansas City Center
Sat 08:34:43 PM 38.9039 -88.9706 144° Southeast 466 536 35,000  Level Kansas City Center
Sat 08:35:44 PM 38.8014 -88.8717 143° Southeast 464 534 35,000  Level Kansas City Center
Sat 08:36:45 PM 38.6953 -88.7714 144° Southeast 467 537 35,000  Level Kansas City Center
Sat 08:37:47 PM 38.5711 -88.6594 145° Southeast 468 539 35,000  Level Kansas City Center
Sat 08:38:48 PM 38.4728 -88.5664 143° Southeast 468 539 35,000  Level Kansas City Center
Sat 08:39:49 PM 38.3672 -88.4694 144° Southeast 468 539 35,000  Level Kansas City Center
Sat 08:40:51 PM 38.2625 -88.3711 144° Southeast 468 539 35,000  Level Kansas City Center
Sat 08:41:52 PM 38.1583 -88.2756 144° Southeast 467 537 35,000  Level Kansas City Center
Sat 08:42:58 PM 38.0367 -88.1622 144° Southeast 463 533 35,000 472 Level Indianapolis Center
Sat 08:43:59 PM 37.9286 -88.0633 144° Southeast 469 540 36,000 984 Climbing Indianapolis Center
Sat 08:45:00 PM 37.8197 -87.9625 144° Southeast 482 555 37,000 492 Climbing Indianapolis Center
Sat 08:46:01 PM 37.7028 -87.8553 144° Southeast 483 556 37,000  Level Indianapolis Center
Sat 08:47:02 PM 37.5928 -87.7556 144° Southeast 483 556 37,000  Level Indianapolis Center
Sat 08:48:03 PM 37.4831 -87.6572 145° Southeast 483 556 37,000  Level Indianapolis Center
Sat 08:49:04 PM 37.3736 -87.5589 144° Southeast 482 555 37,000  Level Indianapolis Center
Sat 08:50:05 PM 37.2631 -87.4600 145° Southeast 482 555 37,000  Level Indianapolis Center
Sat 08:51:06 PM 37.1536 -87.3617 144° Southeast 482 555 37,000  Level Indianapolis Center
Sat 08:51:54 PM 37.0806 -87.2967 145° Southeast 482 555 37,000  Level Memphis Center
Sat 08:52:55 PM 36.9722 -87.2011 145° Southeast 476 548 37,000  Level Memphis Center
Sat 08:53:56 PM 36.8489 -87.0908 144° Southeast 466 536 37,000  Level Memphis Center
Sat 08:54:57 PM 36.7428 -86.9981 145° Southeast 465 535 37,000  Level Memphis Center
Sat 08:55:58 PM 36.6372 -86.9044 145° Southeast 463 533 37,000  Level Memphis Center
Sat 08:56:59 PM 36.5308 -86.8111 145° Southeast 462 532 37,000  Level Memphis Center
Sat 08:58:00 PM 36.4236 -86.7164 145° Southeast 462 532 37,000  Level Memphis Center
Sat 08:59:02 PM 36.3333 -86.6389 145° Southeast 462 532 37,000  Level Memphis Center
Sat 09:00:03 PM 36.2267 -86.5483 146° Southeast 461 531 37,000  Level Memphis Center
Sat 09:01:04 PM 36.1211 -86.4567 145° Southeast 461 531 37,000  Level Memphis Center
Sat 09:02:05 PM 36.0139 -86.3642 145° Southeast 461 531 37,000  Level Memphis Center
Sat 09:03:06 PM 35.9067 -86.2725 145° Southeast 461 531 37,000  Level Memphis Center
Sat 09:04:07 PM 35.7814 -86.1650 145° Southeast 462 532 37,000  Level Memphis Center
Sat 09:05:08 PM 35.6742 -86.0744 146° Southeast 462 532 37,000  Level Memphis Center
Sat 09:06:09 PM 35.5794 -85.9947 146° Southeast 462 532 37,000  Level Memphis Center
Sat 09:07:10 PM 35.4736 -85.9042 145° Southeast 463 533 37,000  Level Memphis Center
Sat 09:08:10 PM 35.3633 -85.8139 146° Southeast 465 535 37,000  Level Atlanta Center
Sat 09:09:10 PM 35.2583 -85.7225 145° Southeast 465 535 37,000  Level Atlanta Center
Sat 09:10:10 PM 35.1531 -85.6342 146° Southeast 465 535 37,000  Level Atlanta Center
Sat 09:11:10 PM 35.0456 -85.5458 146° Southeast 465 535 37,000  Level Atlanta Center
Sat 09:12:10 PM 34.9403 -85.4578 146° Southeast 465 535 37,000  Level Atlanta Center
Sat 09:13:10 PM 34.8328 -85.3697 146° Southeast 465 535 37,000  Level Atlanta Center
Sat 09:14:10 PM 34.7272 -85.2797 145° Southeast 460 529 37,000  Level Atlanta Center
Sat 09:15:10 PM 34.6194 -85.1947 147° Southeast 460 529 37,000  Level Atlanta Center
Sat 09:16:10 PM 34.5181 -85.1028 143° Southeast 460 529 37,000  Level Atlanta Center
Sat 09:17:10 PM 34.4103 -85.0183 147° Southeast 460 529 37,000  Level Atlanta Center
Sat 09:18:10 PM 34.3025 -84.9289 146° Southeast 460 529 37,000  Level Atlanta Center
Sat 09:19:10 PM 34.1861 -84.8372 147° Southeast 460 529 37,000  Level Atlanta Center
Sat 09:20:10 PM 34.0886 -84.7586 146° Southeast 466 536 37,000  Level Atlanta Center
Sat 09:21:10 PM 33.9825 -84.6725 146° Southeast 466 536 37,000  Level Atlanta Center
Sat 09:22:10 PM 33.8744 -84.5892 147° Southeast 461 531 37,000  Level Atlanta Center
Sat 09:23:10 PM 33.7558 -84.4911 145° Southeast 461 531 37,000  Level Atlanta Center
Sat 09:24:10 PM 33.6539 -84.4106 147° Southeast 466 536 37,000  Level Atlanta Center
Sat 09:25:10 PM 33.5475 -84.3256 146° Southeast 466 536 37,000  Level Atlanta Center
Sat 09:26:10 PM 33.4289 -84.2306 146° Southeast 472 543 37,000  Level Atlanta Center
Sat 09:27:10 PM 33.3183 -84.1456 147° Southeast 467 537 37,000  Level Atlanta Center
Sat 09:28:10 PM 33.2139 -84.0611 146° Southeast 467 537 37,000  Level Atlanta Center
Sat 09:29:10 PM 33.1033 -83.9744 147° Southeast 461 531 37,000  Level Atlanta Center
Sat 09:30:10 PM 33.0008 -83.8878 145° Southeast 461 531 37,000  Level Atlanta Center
Sat 09:31:10 PM 32.8922 -83.8039 147° Southeast 461 531 37,000 -300 Level Atlanta Center
Sat 09:32:10 PM 32.7836 -83.7175 146° Southeast 466 536 36,400 -500 Descending Atlanta Center
Sat 09:33:10 PM 32.6769 -83.6342 147° Southeast 466 536 36,000 -200 Descending Atlanta Center
Sat 09:34:10 PM 32.5931 -83.5678 146° Southeast 461 531 36,000  Level Atlanta Center
Sat 09:36:18 PM 32.3514 -83.3794 147° Southeast 473 544 36,000  Level Jacksonville Center
Sat 09:37:18 PM 32.2431 -83.2953 147° Southeast 466 536 36,000  Level Jacksonville Center
Sat 09:38:18 PM 32.1347 -83.2117 147° Southeast 466 536 36,000  Level Jacksonville Center
Sat 09:39:18 PM 32.0264 -83.1278 147° Southeast 466 536 36,000  Level Jacksonville Center
Sat 09:40:18 PM 31.9158 -83.0444 147° Southeast 466 536 36,000  Level Jacksonville Center
Sat 09:41:18 PM 31.7969 -82.9561 148° Southeast 466 536 36,000  Level Jacksonville Center
Sat 09:42:18 PM 31.6906 -82.8731 146° Southeast 466 536 36,000  Level Jacksonville Center
Sat 09:43:18 PM 31.5819 -82.7903 147° Southeast 466 536 36,000  Level Jacksonville Center
Sat 09:44:18 PM 31.4836 -82.6878 138° Southeast 466 536 36,000 -350 Level Jacksonville Center
Sat 09:45:18 PM 31.3833 -82.5836 138° Southeast 476 548 35,300 -800 Descending Jacksonville Center
Sat 09:46:18 PM 31.2953 -82.4939 139° Southeast 476 548 34,400 -950 Descending Jacksonville Center
Sat 09:47:18 PM 31.1947 -82.3922 139° Southeast 476 548 33,400 -1,000 Descending Jacksonville Center
Sat 09:48:18 PM 31.0981 -82.2908 138° Southeast 476 548 32,400 -1,050 Descending Jacksonville Center
Sat 09:49:18 PM 31.0017 -82.1922 139° Southeast 471 542 31,300 -2,100 Descending Jacksonville Center
Sat 09:50:18 PM 30.9072 -82.0961 139° Southeast 466 536 28,200 -2,600 Descending Jacksonville Center
Sat 09:51:18 PM 30.8147 -81.9975 138° Southeast 460 529 26,100 -2,050 Descending Jacksonville Center
Sat 09:52:18 PM 30.7261 -81.9067 139° Southeast 450 518 24,100 -1,100 Descending Jacksonville Center
Sat 09:53:18 PM 30.6378 -81.8158 138° Southeast 432 497 23,900 -50 Descending Jacksonville Center
Sat 09:54:18 PM 30.5536 -81.7275 138° Southeast 421 484 24,000 50 Climbing Jacksonville Center
Sat 09:55:18 PM 30.4650 -81.6417 140° Southeast 421 484 24,000  Level Jacksonville Center
Sat 09:56:18 PM 30.3783 -81.5514 138° Southeast 415 478 24,000  Level Jacksonville Center
Sat 09:57:18 PM 30.2817 -81.4903 151° Southeast 409 471 24,000 -250 Level Jacksonville Center
Sat 09:58:18 PM 30.1769 -81.4486 161° South 394 453 23,500 -750 Descending Jacksonville Center
Sat 09:59:18 PM 30.0764 -81.4117 162° South 389 448 22,500 -1,000 Descending Jacksonville Center
Sat 10:00:18 PM 29.9756 -81.3725 161° South 389 448 21,500 -1,100 Descending Jacksonville Center
Sat 10:01:18 PM 29.8769 -81.3356 162° South 384 442 20,300 -1,500 Descending Jacksonville Center
Sat 10:02:18 PM 29.7828 -81.2989 161° South 379 436 18,500 -2,094 Descending Jacksonville Center
Sat 10:03:04 PM 29.7050 -81.2689 161° South 357 411 16,600 -2,600 Descending Jacksonville Center
Sat 10:03:18 PM 29.6883 -81.2644 167° South 368 423 15,900 -2,852 Descending Jacksonville Center
Sat 10:04:05 PM 29.6022 -81.2325 162° South 363 418 13,700 -2,600 Descending Jacksonville Center
Sat 10:04:18 PM 29.5917 -81.2256 150° Southeast 368 423 13,300 -2,300 Descending Jacksonville Center
Sat 10:05:05 PM 29.5078 -81.1936 162° South 365 420 11,400 -2,000 Descending Jacksonville Center
Sat 10:05:18 PM 29.4972 -81.1889 159° South 368 423 11,300 -984 Descending Jacksonville Center
Sat 10:06:06 PM 29.4197 -81.1594 162° South 324 373 10,400 -1,100 Descending Jacksonville Center
Sat 10:06:18 PM 29.4111 -81.1522 144° Southeast 353 406 10,200 -1,279 Descending Jacksonville Center
Sat 10:07:07 PM 29.3358 -81.1297 165° South 309 356 9,100 -1,300 Descending Jacksonville Center
Sat 10:07:18 PM 29.3275 -81.1253 155° Southeast 332 382 8,900 -1,300 Descending Jacksonville Center
Sat 10:08:07 PM 29.2564 -81.1217 177° South 285 328 7,800 -1,300 Descending Jacksonville Center
Sat 10:08:18 PM 29.2481 -81.1194 167° South 309 356 7,600 -1,268 Descending Jacksonville Center
Sat 10:09:18 PM 29.1753 -81.1397 194° South 287 330 6,300 -1,300 Descending Jacksonville Center
Sat 10:10:18 PM 29.1003 -81.1578 192° South 282 325 5,000 -700 Descending Jacksonville Center
Sat 10:11:18 PM 29.0294 -81.1708 189° South 276 318 4,900 -373 Descending Jacksonville Center
Sat 10:12:59 PM 28.9000 -81.2000 191° South 258 297 4,000 -634 Descending Orlando TRACON
Sat 10:13:59 PM 28.8500 -81.2500 221° Southwest 234 269 3,200 -850 Descending Orlando TRACON
Sat 10:14:59 PM 28.8333 -81.3000 249° West 199 229 2,300 -700 Descending Orlando TRACON
Sat 10:15:59 PM 28.8000 -81.3333 221° Southwest 170 196 1,800 -650 Descending Orlando TRACON
Sat 10:16:59 PM 28.7833 -81.3000 120° Southeast 154 177 1,000 -800 Descending Orlando TRACON
Sat 10:18:00 PM 28.7667 -81.2333 199° South  Level FlightAware Approximate
Sat 10:25:00 PM 28.7770 -81.2349 199° South  Level Estimated
Sat 10:26:00 PM 28.7770 -81.2349 199° South  Level Estimated
Sat 10:27:00 PM 28.7770 -81.2349 199° South  Level Estimated
Sat 10:28:00 PM 28.7770 -81.2349 199° South  Level Estimated

Login

Don't have an account? Register now (free) for customized features, flight alerts, and more!